Time;durP1;ratioP1;P1;durP2;ratioP2;P2;SDS_P1;SDS_P2;PMS_P1;PMS_P2;Temp;Humidity;BMP_temperature;BMP_pressure;BME280_temperature;BME280_humidity;BME280_pressure;Samples;Min_cycle;Max_cycle;Signal;HPM_P1;HPM_P2
2023/01/10 00:01:21;;;;;;;;;;;;;;;19.00;46.23;100825.31;5130945;27;20268;-57
2023/01/10 00:03:47;;;;;;;;;;;;;;;19.00;46.17;100830.84;5130833;27;19924;-56
2023/01/10 00:06:12;;;;;;;;;;;;;;;18.99;46.05;100836.63;5129036;28;19930;-56
2023/01/10 00:08:38;;;;;;;;;;;;;;;19.00;46.18;100846.56;5127769;27;19924;-57
2023/01/10 00:13:22;;;;;;;;;;;;;;;18.99;46.43;100845.72;5130895;28;19938;-56
2023/01/10 00:13:51;;;;;;;;;;;;;;;18.99;46.04;100867.78;5129454;28;19928;-57
2023/01/10 00:16:17;;;;;;;;;;;;;;;18.99;46.08;100866.97;5128404;28;19931;-56
2023/01/10 00:18:42;;;;;;;;;;;;;;;18.99;46.20;100873.31;5114327;27;20295;-56
2023/01/10 00:21:08;;;;;;;;;;;;;;;18.99;46.39;100878.84;5131022;27;19923;-56
2023/01/10 00:23:34;;;;;;;;;;;;;;;18.99;46.11;100883.53;5130246;28;19930;-56
2023/01/10 00:26:00;;;;;;;;;;;;;;;18.98;46.46;100888.22;5130418;28;19967;-56
2023/01/10 00:28:25;;;;;;;;;;;;;;;18.99;46.11;100889.06;5114427;28;19939;-57
2023/01/10 00:30:54;;;;;;;;;;;;;;;18.99;46.17;100889.88;5130352;28;19932;-56
2023/01/10 00:33:20;;;;;;;;;;;;;;;18.98;46.31;100896.50;5112402;28;20233;-57
2023/01/10 00:35:46;;;;;;;;;;;;;;;18.98;46.35;100899.28;5130265;28;19928;-57
2023/01/10 00:38:12;;;;;;;;;;;;;;;18.98;46.19;100902.03;5111886;28;19963;-57
2023/01/10 00:40:37;;;;;;;;;;;;;;;18.98;46.13;100909.47;5109883;28;19931;-57
2023/01/10 00:45:48;;;;;;;;;;;;;;;18.98;46.16;100920.53;5094624;28;19963;-56
2023/01/10 00:48:14;;;;;;;;;;;;;;;18.99;46.00;100924.94;5109780;28;19924;-56
2023/01/10 00:50:39;;;;;;;;;;;;;;;18.98;46.05;100931.56;5091588;28;19932;-56
2023/01/10 00:53:05;;;;;;;;;;;;;;;18.97;46.02;100933.50;5109867;28;19934;-56
2023/01/10 00:55:31;;;;;;;;;;;;;;;18.97;46.04;100940.97;5109100;28;19924;-57
2023/01/10 00:57:56;;;;;;;;;;;;;;;18.98;46.35;100945.38;5121651;27;19934;-57
2023/01/10 01:00:22;;;;;;;;;;;;;;;18.96;46.32;100956.69;5129873;28;19923;-56
2023/01/10 01:02:50;;;;;;;;;;;;;;;18.96;46.10;100959.44;5130404;27;19927;-57
2023/01/10 01:05:16;;;;;;;;;;;;;;;18.96;46.26;100964.97;5133432;28;19965;-57
2023/01/10 01:07:41;;;;;;;;;;;;;;;18.96;46.03;100964.97;5133192;28;19928;-57
2023/01/10 01:10:38;;;;;;;;;;;;;;;18.96;46.04;100976.00;5115240;28;20403;-56
2023/01/10 01:12:53;;;;;;;;;;;;;;;18.96;46.22;100978.78;5104321;27;19935;-57
2023/01/10 01:15:20;;;;;;;;;;;;;;;18.96;46.07;100983.47;5133634;27;19930;-57
2023/01/10 01:17:46;;;;;;;;;;;;;;;18.96;46.17;100994.50;5133569;28;20390;-56
2023/01/10 01:20:12;;;;;;;;;;;;;;;18.96;46.04;101000.84;5115413;27;19966;-57
2023/01/10 01:22:37;;;;;;;;;;;;;;;18.96;46.19;101000.03;5133831;27;20321;-56
2023/01/10 01:25:03;;;;;;;;;;;;;;;18.96;46.05;101002.78;5133346;28;19923;-57
2023/01/10 01:27:29;;;;;;;;;;;;;;;18.95;46.25;101007.44;5120852;28;19928;-57
2023/01/10 01:29:54;;;;;;;;;;;;;;;18.95;46.36;101007.44;5129102;28;20386;-57
2023/01/10 01:32:20;;;;;;;;;;;;;;;18.94;46.06;101016.84;5133722;28;20283;-56
2023/01/10 01:34:46;;;;;;;;;;;;;;;18.95;46.22;101025.94;5133477;28;19927;-57
2023/01/10 01:37:11;;;;;;;;;;;;;;;18.95;46.31;101020.44;5122850;28;20107;-56
2023/01/10 01:39:37;;;;;;;;;;;;;;;18.94;46.37;101027.88;5124588;27;19930;-56
2023/01/10 01:42:03;;;;;;;;;;;;;;;18.93;46.32;101029.00;5132843;28;19928;-57
2023/01/10 01:44:31;;;;;;;;;;;;;;;18.95;46.13;101042.50;5132990;28;20370;-56
2023/01/10 01:47:01;;;;;;;;;;;;;;;18.94;46.30;101041.69;5133044;28;19955;-56
2023/01/10 01:49:26;;;;;;;;;;;;;;;18.95;46.04;101045.25;5133227;28;20384;-57
2023/01/10 01:51:58;;;;;;;;;;;;;;;18.95;46.04;101042.50;5133176;28;19930;-57
2023/01/10 01:54:23;;;;;;;;;;;;;;;18.94;46.06;101052.72;5114256;28;19980;-57
2023/01/10 01:56:50;;;;;;;;;;;;;;;18.94;45.95;101060.16;5133009;28;20332;-57
2023/01/10 01:59:21;;;;;;;;;;;;;;;18.95;46.07;101067.34;5132646;28;20380;-57
2023/01/10 02:01:48;;;;;;;;;;;;;;;18.94;46.23;101072.03;5133065;28;20283;-56
2023/01/10 02:04:16;;;;;;;;;;;;;;;18.94;46.02;101071.22;5132999;28;19931;-56
2023/01/10 02:06:41;;;;;;;;;;;;;;;18.94;46.21;101062.94;5132638;28;19927;-57
2023/01/10 02:09:27;;;;;;;;;;;;;;;18.94;46.22;101065.69;5132937;28;19930;-57
2023/01/10 02:11:53;;;;;;;;;;;;;;;18.93;46.37;101075.91;5117426;28;19923;-57
2023/01/10 02:14:19;;;;;;;;;;;;;;;18.93;46.23;101075.09;5113443;28;19963;-57
2023/01/10 02:16:44;;;;;;;;;;;;;;;18.93;46.35;101078.66;5132568;28;19976;-57
2023/01/10 02:19:13;;;;;;;;;;;;;;;18.94;46.09;101090.53;5132808;28;20387;-56
2023/01/10 02:21:44;;;;;;;;;;;;;;;18.93;46.18;101086.13;5132822;28;19927;-57
2023/01/10 02:24:17;;;;;;;;;;;;;;;18.93;46.35;101100.75;5132769;27;19962;-57
2023/01/10 02:27:02;;;;;;;;;;;;;;;18.93;46.01;101102.69;5126466;28;19959;-56
2023/01/10 02:29:47;;;;;;;;;;;;;;;18.93;46.12;101094.41;5109560;28;19928;-56
2023/01/10 02:32:33;;;;;;;;;;;;;;;18.92;46.07;101096.34;5117143;28;19970;-56
2023/01/10 02:35:33;;;;;;;;;;;;;;;18.92;46.05;101101.03;5119175;28;19979;-56
2023/01/10 02:38:18;;;;;;;;;;;;;;;18.91;46.02;101089.16;5100138;28;20387;-57
2023/01/10 02:43:26;;;;;;;;;;;;;;;18.92;46.20;101099.09;5189698;27;19925;-56
2023/01/10 02:45:59;;;;;;;;;;;;;;;18.92;46.09;101098.28;5189831;27;20281;-56
2023/01/10 02:48:25;;;;;;;;;;;;;;;18.92;46.08;101093.56;5170520;27;19922;-56
2023/01/10 02:50:53;;;;;;;;;;;;;;;18.91;46.04;101091.94;5189581;27;20392;-56
2023/01/10 02:53:21;;;;;;;;;;;;;;;18.90;46.35;101090.25;5189158;27;19970;-56
2023/01/10 02:56:07;;;;;;;;;;;;;;;18.91;46.17;101089.16;5189723;27;20290;-56
2023/01/10 02:58:52;;;;;;;;;;;;;;;18.90;46.11;101090.25;5173137;27;19923;-56
2023/01/10 03:01:38;;;;;;;;;;;;;;;18.91;45.98;101096.59;5173146;27;19938;-56
2023/01/10 03:04:09;;;;;;;;;;;;;;;18.91;46.01;101102.09;5155814;27;19970;-56
2023/01/10 03:06:39;;;;;;;;;;;;;;;18.90;46.24;101101.28;5168208;27;20386;-56
2023/01/10 03:09:09;;;;;;;;;;;;;;;18.91;46.32;101115.91;5149842;27;19989;-56
2023/01/10 03:11:43;;;;;;;;;;;;;;;18.91;46.09;101115.91;5149867;27;19954;-56
2023/01/10 03:14:13;;;;;;;;;;;;;;;18.90;46.02;101120.59;5168453;27;19931;-56
2023/01/10 03:16:40;;;;;;;;;;;;;;;18.91;45.93;101124.19;5167632;27;20007;-56
2023/01/10 03:19:07;;;;;;;;;;;;;;;18.90;46.09;101134.41;5149262;27;19966;-56
2023/01/10 03:21:33;;;;;;;;;;;;;;;18.90;46.32;101136.34;5168242;27;20351;-56
2023/01/10 03:24:00;;;;;;;;;;;;;;;18.89;46.14;101132.75;5148870;27;19938;-56
2023/01/10 03:26:28;;;;;;;;;;;;;;;18.90;46.01;101137.16;5164042;27;19976;-56
2023/01/10 03:28:55;;;;;;;;;;;;;;;18.89;46.09;101126.41;5155422;27;19954;-56
2023/01/10 03:31:23;;;;;;;;;;;;;;;18.89;45.98;101132.75;5167820;27;19961;-56
2023/01/10 03:33:48;;;;;;;;;;;;;;;18.90;46.04;101130.81;5149328;27;20294;-56
2023/01/10 03:36:34;;;;;;;;;;;;;;;18.90;46.29;101133.56;5166078;27;19923;-56
2023/01/10 03:39:10;;;;;;;;;;;;;;;18.90;46.19;101141.84;5146694;27;19972;-56
2023/01/10 03:41:37;;;;;;;;;;;;;;;18.89;46.19;101145.72;5167995;27;19934;-56
2023/01/10 03:44:43;;;;;;;;;;;;;;;18.89;46.33;101145.72;5149165;27;19958;-56
2023/01/10 03:47:06;;;;;;;;;;;;;;;18.87;46.08;101148.78;5134805;27;20376;-56
2023/01/10 03:49:32;;;;;;;;;;;;;;;18.90;46.32;101161.16;5167983;27;19927;-56
2023/01/10 03:51:58;;;;;;;;;;;;;;;18.88;46.03;101158.69;5167603;27;19948;-56
2023/01/10 03:54:23;;;;;;;;;;;;;;;18.90;46.08;101166.69;5155449;27;20287;-56
2023/01/10 03:56:49;;;;;;;;;;;;;;;18.89;46.36;101171.38;5153614;27;19948;-56
2023/01/10 03:59:16;;;;;;;;;;;;;;;18.89;46.04;101176.06;5134937;27;19927;-56
2023/01/10 04:01:41;;;;;;;;;;;;;;;18.89;45.93;101189.88;5153668;27;19966;-56
2023/01/10 04:04:07;;;;;;;;;;;;;;;18.88;46.22;101189.06;5153622;27;19930;-56
2023/01/10 04:06:33;;;;;;;;;;;;;;;18.88;46.34;101200.09;5153513;27;19934;-57
2023/01/10 04:08:58;;;;;;;;;;;;;;;18.88;46.37;101197.31;5153578;27;19927;-56
2023/01/10 04:11:24;;;;;;;;;;;;;;;18.88;46.37;101194.56;5153650;27;20378;-56
2023/01/10 04:13:49;;;;;;;;;;;;;;;18.89;46.34;101200.91;5153145;27;19990;-56
2023/01/10 04:16:15;;;;;;;;;;;;;;;18.89;46.32;101201.75;5153579;27;20385;-56
2023/01/10 04:18:41;;;;;;;;;;;;;;;18.88;46.11;101202.84;5153303;27;19923;-56
2023/01/10 04:21:06;;;;;;;;;;;;;;;18.88;46.35;101204.78;5153342;27;19927;-56
2023/01/10 04:23:32;;;;;;;;;;;;;;;18.88;46.08;101210.31;5153007;27;19923;-56
2023/01/10 04:25:57;;;;;;;;;;;;;;;18.88;46.01;101213.06;5152561;27;19976;-56
2023/01/10 04:28:23;;;;;;;;;;;;;;;18.88;46.24;101221.34;5152751;27;20371;-56
2023/01/10 04:30:50;;;;;;;;;;;;;;;18.88;46.07;101221.34;5152892;27;20363;-56
2023/01/10 04:33:15;;;;;;;;;;;;;;;18.88;46.25;101224.09;5152827;27;19934;-56
2023/01/10 04:35:45;;;;;;;;;;;;;;;18.87;46.06;101217.75;5153141;27;19927;-56
2023/01/10 04:38:11;;;;;;;;;;;;;;;18.88;46.32;101213.88;5152841;27;19927;-56
2023/01/10 04:40:36;;;;;;;;;;;;;;;18.88;46.07;101218.59;5173999;27;19930;-56
2023/01/10 04:43:02;;;;;;;;;;;;;;;18.87;46.13;101215.00;5173809;27;20092;-56
2023/01/10 04:45:27;;;;;;;;;;;;;;;18.87;46.12;101212.25;5173806;27;19927;-56
2023/01/10 04:47:55;;;;;;;;;;;;;;;18.87;46.21;101211.38;5141445;27;20500;-56
2023/01/10 04:50:20;;;;;;;;;;;;;;;18.87;46.31;101215.00;5113952;28;19931;-56
2023/01/10 04:52:46;;;;;;;;;;;;;;;18.88;46.09;101215.81;5132261;28;20006;-56
2023/01/10 04:55:12;;;;;;;;;;;;;;;18.86;46.35;101221.59;5131655;28;19927;-56
2023/01/10 04:57:37;;;;;;;;;;;;;;;18.87;45.99;101223.28;5131967;27;19924;-56
2023/01/10 05:00:03;;;;;;;;;;;;;;;18.87;46.35;101233.47;5149393;27;19927;-56
2023/01/10 05:02:28;;;;;;;;;;;;;;;18.87;46.11;101236.22;5152554;27;19971;-56
2023/01/10 05:04:54;;;;;;;;;;;;;;;18.86;46.06;101238.16;5151764;27;19923;-56
2023/01/10 05:07:20;;;;;;;;;;;;;;;18.87;46.19;101238.97;5141449;27;19923;-56
2023/01/10 05:09:45;;;;;;;;;;;;;;;18.87;46.43;101242.59;5131955;28;20205;-56
2023/01/10 05:12:11;;;;;;;;;;;;;;;18.86;46.11;101248.38;5131930;28;20358;-56
2023/01/10 05:14:36;;;;;;;;;;;;;;;18.87;46.02;101255.53;5131802;28;20287;-56
2023/01/10 05:17:02;;;;;;;;;;;;;;;18.86;46.05;101249.19;5131669;27;19924;-56
2023/01/10 05:19:27;;;;;;;;;;;;;;;18.87;46.22;101250.00;5131732;28;20367;-56
2023/01/10 05:21:53;;;;;;;;;;;;;;;18.87;45.99;101255.53;5131721;28;19923;-56
2023/01/10 05:24:19;;;;;;;;;;;;;;;18.85;46.14;101255.81;5130938;28;19928;-56
2023/01/10 05:26:44;;;;;;;;;;;;;;;18.86;46.20;101259.41;5131343;27;19930;-56
2023/01/10 05:29:10;;;;;;;;;;;;;;;18.87;45.92;101258.28;5142654;27;19930;-56
2023/01/10 05:31:35;;;;;;;;;;;;;;;18.86;46.33;101256.63;5128423;27;19933;-56
2023/01/10 05:34:01;;;;;;;;;;;;;;;18.86;46.13;101268.50;5131442;28;19927;-56
2023/01/10 05:36:27;;;;;;;;;;;;;;;18.86;46.38;101270.44;5143999;27;20287;-56
2023/01/10 05:38:52;;;;;;;;;;;;;;;18.86;46.16;101285.06;5149681;27;19974;-56
2023/01/10 05:41:18;;;;;;;;;;;;;;;18.86;46.09;101284.22;5136633;27;20410;-56
2023/01/10 05:43:43;;;;;;;;;;;;;;;18.86;46.16;101290.59;5151862;27;19923;-56
2023/01/10 05:46:09;;;;;;;;;;;;;;;18.86;46.36;101292.50;5151867;27;19930;-56
2023/01/10 05:48:35;;;;;;;;;;;;;;;18.86;45.93;101278.72;5146066;27;19923;-56
2023/01/10 05:51:00;;;;;;;;;;;;;;;18.87;46.34;101275.72;5133259;27;19923;-56
2023/01/10 05:53:26;;;;;;;;;;;;;;;18.86;46.04;101267.69;5146640;27;19983;-56
2023/01/10 05:55:52;;;;;;;;;;;;;;;18.85;46.10;101277.88;5152015;27;19927;-56
2023/01/10 05:58:18;;;;;;;;;;;;;;;18.86;46.06;101284.22;5150938;27;19954;-56
2023/01/10 06:00:43;;;;;;;;;;;;;;;18.86;46.31;101287.81;5150857;27;20324;-56
2023/01/10 06:03:09;;;;;;;;;;;;;;;18.86;46.01;101287.00;5144395;27;19938;-56
2023/01/10 06:05:34;;;;;;;;;;;;;;;18.86;46.33;101292.50;5151266;27;19923;-56
2023/01/10 06:08:00;;;;;;;;;;;;;;;18.86;46.19;101303.56;5151599;27;19930;-56
2023/01/10 06:10:25;;;;;;;;;;;;;;;18.86;46.20;101311.84;5151708;27;19923;-56
2023/01/10 06:12:52;;;;;;;;;;;;;;;18.85;46.19;101327.56;5151426;27;19927;-56
2023/01/10 06:15:18;;;;;;;;;;;;;;;18.85;46.41;101323.97;5150960;27;20268;-56
2023/01/10 06:17:44;;;;;;;;;;;;;;;18.85;45.98;101322.03;5150483;27;19930;-56
2023/01/10 06:20:10;;;;;;;;;;;;;;;18.86;46.21;101311.84;5151449;27;19930;-56
2023/01/10 06:22:36;;;;;;;;;;;;;;;18.86;46.01;101306.31;5151210;27;19987;-56
2023/01/10 06:25:01;;;;;;;;;;;;;;;18.85;46.37;101319.28;5151047;27;20320;-56
2023/01/10 06:27:27;;;;;;;;;;;;;;;18.85;46.13;101326.72;5150954;27;20430;-56
2023/01/10 06:29:53;;;;;;;;;;;;;;;18.85;46.30;101332.25;5149788;27;20378;-56
2023/01/10 06:32:19;;;;;;;;;;;;;;;18.85;46.00;101333.09;5150999;27;19931;-56
2023/01/10 06:34:44;;;;;;;;;;;;;;;18.85;46.07;101344.13;5151070;27;20283;-56
2023/01/10 06:37:10;;;;;;;;;;;;;;;18.85;46.22;101340.53;5144481;27;19968;-56
2023/01/10 06:39:35;;;;;;;;;;;;;;;18.83;46.26;101343.56;5134279;27;20370;-55
2023/01/10 06:42:01;;;;;;;;;;;;;;;18.84;46.21;101350.75;5144920;27;19927;-56
2023/01/10 06:44:26;;;;;;;;;;;;;;;18.85;45.98;101343.28;5138349;27;20292;-56
2023/01/10 06:46:52;;;;;;;;;;;;;;;18.85;46.31;101354.34;5143034;27;19927;-56
2023/01/10 06:49:18;;;;;;;;;;;;;;;18.85;46.27;101362.59;5143971;27;20294;-56
2023/01/10 06:51:43;;;;;;;;;;;;;;;18.84;46.03;101370.06;5143631;27;20363;-56
2023/01/10 06:54:09;;;;;;;;;;;;;;;18.84;45.98;101370.06;5140966;27;19934;-56
2023/01/10 06:56:34;;;;;;;;;;;;;;;18.84;46.28;101378.34;5138815;27;20134;-56
2023/01/10 06:59:00;;;;;;;;;;;;;;;18.85;46.31;101384.69;5133645;27;19927;-56
2023/01/10 07:01:26;;;;;;;;;;;;;;;18.83;46.13;101382.22;5125124;27;20420;-56
2023/01/10 07:03:52;;;;;;;;;;;;;;;18.83;46.14;101384.97;5134391;27;20381;-56
2023/01/10 07:06:18;;;;;;;;;;;;;;;18.85;46.11;101390.19;5138903;27;20405;-56
2023/01/10 07:08:44;;;;;;;;;;;;;;;18.85;46.18;101392.97;5133364;27;19965;-56
2023/01/10 07:11:10;;;;;;;;;;;;;;;18.84;46.30;101394.91;5125984;27;20029;-56
2023/01/10 07:13:35;;;;;;;;;;;;;;;18.84;46.22;101399.59;5139345;27;19949;-55
2023/01/10 07:16:02;;;;;;;;;;;;;;;18.83;46.28;101398.75;5137355;27;19935;-56
2023/01/10 07:18:27;;;;;;;;;;;;;;;18.84;45.97;101402.34;5113695;27;20333;-56
2023/01/10 07:20:54;;;;;;;;;;;;;;;18.84;45.94;101416.16;5138094;27;20351;-56
2023/01/10 07:23:19;;;;;;;;;;;;;;;18.84;46.10;101425.25;5137317;27;20302;-56
2023/01/10 07:25:45;;;;;;;;;;;;;;;18.83;46.11;101422.78;5145628;27;19935;-56
2023/01/10 07:28:11;;;;;;;;;;;;;;;18.84;46.25;101428.00;5142477;27;19923;-56
2023/01/10 07:30:36;;;;;;;;;;;;;;;18.84;46.28;101424.44;5148212;27;20402;-56
2023/01/10 07:33:02;;;;;;;;;;;;;;;18.84;46.03;101428.00;5146492;27;19975;-56
2023/01/10 07:35:28;;;;;;;;;;;;;;;18.83;46.23;101426.34;5140911;27;20035;-56
2023/01/10 07:37:56;;;;;;;;;;;;;;;18.83;46.00;101420.00;5125928;27;20299;-56
2023/01/10 07:40:22;;;;;;;;;;;;;;;18.82;46.27;101416.41;5142255;27;19958;-57
2023/01/10 07:42:47;;;;;;;;;;;;;;;18.83;45.99;101426.34;5149180;27;20197;-57
2023/01/10 07:45:13;;;;;;;;;;;;;;;18.83;46.16;101440.16;5134051;27;20662;-56
2023/01/10 07:47:38;;;;;;;;;;;;;;;18.82;46.49;101441.22;5145661;27;19931;-58
2023/01/10 07:50:04;;;;;;;;;;;;;;;18.86;46.41;101449.81;5142360;27;19923;-56
2023/01/10 07:52:31;;;;;;;;;;;;;;;18.87;46.39;101445.94;5140031;27;19931;-56
2023/01/10 07:54:56;;;;;;;;;;;;;;;18.86;46.26;101456.16;5137225;27;19927;-56
2023/01/10 07:57:22;;;;;;;;;;;;;;;18.86;46.64;101455.31;5126208;27;19931;-56
2023/01/10 07:59:48;;;;;;;;;;;;;;;18.86;46.66;101456.16;5132131;27;20383;-59
2023/01/10 08:02:13;;;;;;;;;;;;;;;18.87;46.64;101454.22;5122650;27;19931;-59
2023/01/10 08:04:39;;;;;;;;;;;;;;;18.87;46.46;101460.59;5127141;27;19931;-58
2023/01/10 08:07:04;;;;;;;;;;;;;;;18.88;46.55;101470.53;5118820;27;19954;-60
2023/01/10 08:09:30;;;;;;;;;;;;;;;18.87;46.62;101462.50;5111472;27;19927;-59
2023/01/10 08:11:56;;;;;;;;;;;;;;;18.87;46.65;101474.41;5105403;27;19923;-58
2023/01/10 08:14:22;;;;;;;;;;;;;;;18.89;46.73;101474.13;5123650;27;19950;-58
2023/01/10 08:16:48;;;;;;;;;;;;;;;18.89;46.55;101479.66;5124938;27;19934;-58
2023/01/10 08:19:15;;;;;;;;;;;;;;;18.88;46.63;101487.09;5114608;27;19938;-59
2023/01/10 08:21:41;;;;;;;;;;;;;;;18.89;46.58;101498.97;5135382;27;20059;-59
2023/01/10 08:24:07;;;;;;;;;;;;;;;18.90;46.54;101492.34;5136812;27;19971;-59
2023/01/10 08:26:32;;;;;;;;;;;;;;;18.90;46.55;101498.69;5129669;27;19923;-58
2023/01/10 08:28:58;;;;;;;;;;;;;;;18.97;46.18;101488.25;5135137;27;19930;-58
2023/01/10 08:31:23;;;;;;;;;;;;;;;18.95;46.10;101487.69;5132449;27;19923;-59
2023/01/10 08:33:49;;;;;;;;;;;;;;;18.95;46.23;101489.59;5132523;27;19934;-59
2023/01/10 08:36:16;;;;;;;;;;;;;;;18.94;46.62;101491.53;5133666;27;19931;-59
2023/01/10 08:38:42;;;;;;;;;;;;;;;18.98;46.46;101491.84;5129265;27;21678;-58
2023/01/10 08:41:07;;;;;;;;;;;;;;;18.98;46.44;101491.84;5126952;27;19931;-58
2023/01/10 08:43:33;;;;;;;;;;;;;;;19.00;46.29;101504.31;5135920;27;19931;-59
2023/01/10 08:45:58;;;;;;;;;;;;;;;18.99;46.25;101497.09;5133447;27;20315;-58
2023/01/10 08:48:24;;;;;;;;;;;;;;;18.98;46.41;101503.72;5133386;27;19927;-58
2023/01/10 08:50:50;;;;;;;;;;;;;;;18.97;46.22;101510.34;5135094;27;19927;-59
2023/01/10 08:53:15;;;;;;;;;;;;;;;18.97;46.32;101501.22;5133078;27;19935;-59
2023/01/10 08:55:41;;;;;;;;;;;;;;;18.96;46.50;101505.94;5129517;27;19991;-58
2023/01/10 08:58:07;;;;;;;;;;;;;;;18.96;46.54;101505.94;5129155;27;20394;-59
2023/01/10 09:00:33;;;;;;;;;;;;;;;18.96;46.41;101508.69;5114114;27;19966;-58
2023/01/10 09:02:58;;;;;;;;;;;;;;;18.98;46.54;101513.94;5132784;27;20034;-58
2023/01/10 09:05:25;;;;;;;;;;;;;;;18.98;46.38;101517.53;5128757;27;19927;-59
2023/01/10 09:07:57;;;;;;;;;;;;;;;18.97;46.54;101509.50;5120314;27;20571;-59
2023/01/10 09:10:22;;;;;;;;;;;;;;;18.99;46.75;101515.59;5112482;27;19931;-58
2023/01/10 09:12:55;;;;;;;;;;;;;;;18.99;46.48;101512.81;5127435;27;19938;-58
2023/01/10 09:15:21;;;;;;;;;;;;;;;19.00;46.21;101509.81;5126670;27;19958;-50
2023/01/10 09:17:48;;;;;;;;;;;;;;;19.04;46.60;101521.13;5123544;27;20648;-64
2023/01/10 09:20:14;;;;;;;;;;;;;;;19.04;46.58;101521.13;5118067;27;19952;-59
2023/01/10 09:22:40;;;;;;;;;;;;;;;19.05;46.71;101520.06;5110058;27;20234;-59
2023/01/10 09:25:06;;;;;;;;;;;;;;;19.03;46.49;101519.47;5135750;27;19931;-58
2023/01/10 09:27:31;;;;;;;;;;;;;;;19.03;46.63;101514.78;5137286;27;19931;-59
2023/01/10 09:29:57;;;;;;;;;;;;;;;19.01;46.69;101511.47;5113310;27;19954;-59
2023/01/10 09:32:23;;;;;;;;;;;;;;;19.02;46.84;101517.81;5125206;27;20021;-59
2023/01/10 09:34:48;;;;;;;;;;;;;;;19.03;46.53;101511.19;5124177;27;19931;-58
2023/01/10 09:37:14;;;;;;;;;;;;;;;19.03;46.63;101513.97;5123379;27;19947;-58
2023/01/10 09:39:39;;;;;;;;;;;;;;;19.05;46.50;101525.59;5121337;27;20375;-58
2023/01/10 09:42:13;;;;;;;;;;;;;;;19.03;46.78;101523.06;5130162;27;19931;-58
2023/01/10 09:44:58;;;;;;;;;;;;;;;19.04;46.64;101523.91;5130515;27;20023;-58
2023/01/10 09:47:43;;;;;;;;;;;;;;;19.04;46.73;101518.38;5113953;27;20042;-58
2023/01/10 09:50:18;;;;;;;;;;;;;;;19.03;46.59;101522.25;5134239;27;19934;-58
2023/01/10 09:52:45;;;;;;;;;;;;;;;19.04;46.50;101524.75;5118718;27;19954;-58
2023/01/10 09:55:27;;;;;;;;;;;;;;;19.04;46.90;101527.50;5136013;27;20176;-58
2023/01/10 09:57:53;;;;;;;;;;;;;;;19.07;46.02;101511.50;5133607;27;20275;-58
2023/01/10 10:00:20;;;;;;;;;;;;;;;19.07;46.37;101528.91;5115617;27;19927;-58
2023/01/10 10:02:47;;;;;;;;;;;;;;;19.07;46.41;101519.78;5134616;27;19928;-58
2023/01/10 10:05:17;;;;;;;;;;;;;;;19.05;46.74;101531.94;5124230;27;19927;-58
2023/01/10 10:07:43;;;;;;;;;;;;;;;19.07;46.46;101517.84;5140365;27;19923;-58
2023/01/10 10:10:11;;;;;;;;;;;;;;;19.07;46.45;101522.53;5121462;27;20710;-58
2023/01/10 10:12:54;;;;;;;;;;;;;;;19.07;46.64;101517.03;5118483;27;20310;-59
2023/01/10 10:15:25;;;;;;;;;;;;;;;19.07;46.70;101517.84;5138721;27;19939;-58
2023/01/10 10:18:11;;;;;;;;;;;;;;;19.07;46.58;101515.09;5141738;27;20279;-59
2023/01/10 10:20:39;;;;;;;;;;;;;;;19.09;46.47;101517.59;5123301;27;20427;-58
2023/01/10 10:23:25;;;;;;;;;;;;;;;19.08;46.72;101511.22;5138415;27;19923;-58
2023/01/10 10:25:54;;;;;;;;;;;;;;;19.09;46.44;101509.31;5128464;27;20286;-59
2023/01/10 10:31:06;;;;;;;;;;;;;;;19.10;46.36;101511.81;5152875;27;19929;-55
2023/01/10 10:33:37;;;;;;;;;;;;;;;19.09;46.55;101506.56;5119268;27;19938;-56
2023/01/10 10:36:19;;;;;;;;;;;;;;;19.10;46.47;101502.69;5125334;27;19982;-56
2023/01/10 10:38:45;;;;;;;;;;;;;;;19.10;46.67;101508.22;5118257;27;19981;-56
2023/01/10 10:41:31;;;;;;;;;;;;;;;19.12;46.64;101511.53;5105668;27;19928;-56
2023/01/10 10:43:59;;;;;;;;;;;;;;;19.11;46.55;101513.47;5100059;27;19970;-55
2023/01/10 10:46:25;;;;;;;;;;;;;;;19.12;46.43;101511.53;5130303;27;19923;-56
2023/01/10 10:48:58;;;;;;;;;;;;;;;19.11;46.73;101498.84;5135942;27;19930;-56
2023/01/10 10:51:26;;;;;;;;;;;;;;;19.10;46.63;101499.94;5113203;27;20343;-56
2023/01/10 10:53:53;;;;;;;;;;;;;;;19.13;46.61;101496.63;5106396;28;19971;-56
2023/01/10 10:56:19;;;;;;;;;;;;;;;19.12;46.60;101481.16;5126941;27;19931;-56
2023/01/10 10:58:45;;;;;;;;;;;;;;;19.10;45.38;101492.47;5122543;27;19946;-53
2023/01/10 11:01:12;;;;;;;;;;;;;;;19.05;44.98;101476.72;5126555;27;19934;-56
2023/01/10 11:03:39;;;;;;;;;;;;;;;19.08;45.47;101469.81;5102061;28;20377;-56
2023/01/10 11:06:05;;;;;;;;;;;;;;;19.10;45.69;101472.34;5111652;28;19924;-56
2023/01/10 11:08:30;;;;;;;;;;;;;;;19.10;45.49;101467.63;5105041;27;19924;-56
2023/01/10 11:10:56;;;;;;;;;;;;;;;19.11;46.26;101465.72;5101662;28;20043;-56
2023/01/10 11:13:42;;;;;;;;;;;;;;;18.89;42.73;101452.88;5109992;27;20679;-55
2023/01/10 11:16:21;;;;;;;;;;;;;;;19.04;44.80;101458.50;5100736;27;19928;-56
2023/01/10 11:18:47;;;;;;;;;;;;;;;19.09;44.81;101459.63;5095582;28;19991;-56
2023/01/10 11:21:13;;;;;;;;;;;;;;;19.10;45.35;101455.78;5110196;28;20353;-56
2023/01/10 11:26:34;;;;;;;;;;;;;;;19.11;44.67;101447.22;5173008;27;20540;-56
2023/01/10 11:29:07;;;;;;;;;;;;;;;19.12;44.70;101451.63;5139980;27;20382;-56
2023/01/10 11:31:33;;;;;;;;;;;;;;;19.12;44.15;101448.88;5152895;27;19982;-56
2023/01/10 11:33:59;;;;;;;;;;;;;;;19.12;44.51;101446.09;5154156;27;20367;-56
2023/01/10 11:36:25;;;;;;;;;;;;;;;19.13;44.24;101449.69;5145440;27;19923;-56
2023/01/10 11:38:59;;;;;;;;;;;;;;;19.13;45.03;101447.78;5153711;27;20283;-56
2023/01/10 11:41:30;;;;;;;;;;;;;;;19.13;45.41;101442.25;5135342;27;20222;-56
2023/01/10 11:44:16;;;;;;;;;;;;;;;19.13;45.38;101450.53;5133735;27;20732;-56
2023/01/10 11:46:42;;;;;;;;;;;;;;;19.13;44.96;101444.16;5131325;27;19934;-56
2023/01/10 11:49:11;;;;;;;;;;;;;;;19.15;45.42;101453.84;5152843;27;20416;-57
2023/01/10 11:51:43;;;;;;;;;;;;;;;19.13;44.07;101445.03;5148157;27;19928;-47
2023/01/10 11:54:11;;;;;;;;;;;;;;;19.04;43.81;101438.31;5145422;27;19935;-57
2023/01/10 11:56:38;;;;;;;;;;;;;;;19.11;44.38;101433.41;5144120;27;20364;-57
2023/01/10 11:59:08;;;;;;;;;;;;;;;19.14;43.54;101429.28;5154110;27;20014;-57
2023/01/10 12:01:53;;;;;;;;;;;;;;;19.15;44.24;101426.25;5154906;27;20414;-57
2023/01/10 12:04:20;;;;;;;;;;;;;;;19.16;44.18;101424.31;5128336;27;20318;-57
2023/01/10 12:06:46;;;;;;;;;;;;;;;19.16;43.24;101416.84;5125062;27;19926;-57
2023/01/10 12:09:30;;;;;;;;;;;;;;;19.16;43.46;101418.78;5130052;27;19956;-57
2023/01/10 12:12:00;;;;;;;;;;;;;;;19.17;44.28;101409.41;5151838;27;19923;-57
2023/01/10 12:14:25;;;;;;;;;;;;;;;19.17;43.05;101420.44;5150012;27;20252;-57
2023/01/10 12:16:57;;;;;;;;;;;;;;;19.17;43.69;101412.16;5150287;27;20016;-57
2023/01/10 12:19:22;;;;;;;;;;;;;;;19.17;43.63;101404.75;5131638;27;20119;-57
2023/01/10 12:21:49;;;;;;;;;;;;;;;19.17;45.24;101401.13;5142535;27;19930;-57
2023/01/10 12:24:16;;;;;;;;;;;;;;;19.16;45.47;101389.25;5155617;27;20284;-57
2023/01/10 12:26:41;;;;;;;;;;;;;;;19.16;44.49;101389.25;5137821;27;19927;-57
2023/01/10 12:29:10;;;;;;;;;;;;;;;19.17;44.47;101403.88;5127535;27;19930;-57
2023/01/10 12:31:36;;;;;;;;;;;;;;;19.14;42.62;101396.97;5142895;27;19962;-57
2023/01/10 12:34:08;;;;;;;;;;;;;;;19.17;44.32;101395.59;5144786;27;19964;-57
2023/01/10 12:36:43;;;;;;;;;;;;;;;19.12;41.96;101385.38;5134624;27;19967;-57
2023/01/10 12:39:15;;;;;;;;;;;;;;;19.17;44.05;101390.94;5139485;27;20359;-57
2023/01/10 12:44:32;;;;;;;;;;;;;;;19.19;43.61;101387.88;5118997;27;20444;-57
2023/01/10 12:47:00;;;;;;;;;;;;;;;19.21;42.65;101383.78;5131095;27;19973;-57
2023/01/10 12:49:41;;;;;;;;;;;;;;;19.23;43.73;101372.44;5121637;27;20534;-57
2023/01/10 12:52:09;;;;;;;;;;;;;;;19.22;44.01;101374.38;5126790;27;20453;-57
2023/01/10 12:54:35;;;;;;;;;;;;;;;19.21;44.22;101372.72;5102488;27;20136;-57